KICL/ICL METAR and TAF weather

Enter ICAO airport designator
Station Type Date Time Source
KICL METAR 2019/02/17 15:55 UTC NOAA

KICL 171555Z AUTO 30011KT 9SM OVC013 M05/M06 A2985 RMK AO2


Station Type Date Time Source
KICL Decoded METAR 2019/02/17 15:55 UTC NOAA

Clarinda, IA, United States (KICL) 40-43N 095-02W
Feb 17, 2019 - 10:55 AM EST / 2019.02.17 1555 UTC
Wind: from the WNW (300 degrees) at 13 MPH (11 KT):0
Visibility: 9 mile(s):0
Sky conditions: overcast
Temperature: 23 F (-5 C)
Windchill: 10 F (-12 C):1
Dew Point: 21 F (-6 C)
Relative Humidity: 92%
Pressure (altimeter): 29.85 in. Hg (1010 hPa)
ob: KICL 171555Z AUTO 30011KT 9SM OVC013 M05/M06 A2985 RMK AO2
cycle: 16

Station Type Date Time Source
KICL TAF UTC NOAA

Error!


Example: see airport list